sensor_id;sensor_type;location;lat;lon;timestamp;pressure;altitude;pressure_sealevel;temperature;humidity
70943;BME280;59154;51.970;5.650;2023-05-08T10:15:03;102100;;;23.0736;68.9
70943;BME280;59154;51.970;5.650;2023-05-08T10:20:47;102100;;;23.06852;68.9
70943;BME280;59154;51.970;5.650;2023-05-08T10:25:03;102100;;;23.11429;68.7
70943;BME280;59154;51.970;5.650;2023-05-08T10:30:03;102100;;;23.1499;69.3
70943;BME280;59154;51.970;5.650;2023-05-08T10:35:03;102100;;;23.2618;69.8
70943;BME280;59154;51.970;5.650;2023-05-08T10:40:04;102100;;;23.4449;69.1
70943;BME280;59154;51.970;5.650;2023-05-08T10:45:04;102100;;;23.58223;68.9
70943;BME280;59154;51.970;5.650;2023-05-08T10:50:10;102100;;;23.59749;68.9
70943;BME280;59154;51.970;5.650;2023-05-08T10:55:21;102000;;;23.62293;69.1
70943;BME280;59154;51.970;5.650;2023-05-08T11:00:03;102000;;;23.60767;69.5
70943;BME280;59154;51.970;5.650;2023-05-08T11:05:19;102000;;;23.57715;69.1
70943;BME280;59154;51.970;5.650;2023-05-08T11:10:06;102000;;;23.56189;69.1
70943;BME280;59154;51.970;5.650;2023-05-08T11:15:05;102000;;;23.56698;69.3
70943;BME280;59154;51.970;5.650;2023-05-08T11:20:05;102000;;;23.52628;69.3
70943;BME280;59154;51.970;5.650;2023-05-08T11:25:04;102000;;;23.51103;70.4
70943;BME280;59154;51.970;5.650;2023-05-08T11:30:36;102000;;;23.51103;70.5
70943;BME280;59154;51.970;5.650;2023-05-08T11:35:03;102000;;;23.53646;70.8
70943;BME280;59154;51.970;5.650;2023-05-08T11:40:44;102000;;;23.5568;70.5
70943;BME280;59154;51.970;5.650;2023-05-08T11:45:05;102000;;;23.57715;70.6
70943;BME280;59154;51.970;5.650;2023-05-08T11:50:04;102000;;;23.61275;70.4
70943;BME280;59154;51.970;5.650;2023-05-08T11:55:03;102000;;;23.61784;69.9
70943;BME280;59154;51.970;5.650;2023-05-08T12:00:04;102000;;;23.62801;69.9
70943;BME280;59154;51.970;5.650;2023-05-08T12:05:04;102000;;;23.63818;69.5
70943;BME280;59154;51.970;5.650;2023-05-08T12:10:03;102000;;;23.59749;69.4
70943;BME280;59154;51.970;5.650;2023-05-08T12:15:05;102000;;;23.58732;69.3
70943;BME280;59154;51.970;5.650;2023-05-08T12:20:11;102000;;;23.57715;69.1
70943;BME280;59154;51.970;5.650;2023-05-08T12:25:03;102000;;;23.53137;69.0
70943;BME280;59154;51.970;5.650;2023-05-08T12:30:05;102000;;;23.5212;68.9
70943;BME280;59154;51.970;5.650;2023-05-08T12:35:02;102000;;;23.50594;69.0
70943;BME280;59154;51.970;5.650;2023-05-08T12:40:04;102000;;;23.47542;69.0
70943;BME280;59154;51.970;5.650;2023-05-08T12:45:03;102000;;;23.42456;68.5
70943;BME280;59154;51.970;5.650;2023-05-08T12:50:04;102000;;;23.39913;68.5
70943;BME280;59154;51.970;5.650;2023-05-08T12:55:02;102000;;;23.4093;68.5
70943;BME280;59154;51.970;5.650;2023-05-08T13:00:05;102000;;;23.42456;68.6
70943;BME280;59154;51.970;5.650;2023-05-08T13:05:02;102000;;;23.4449;68.6
70943;BME280;59154;51.970;5.650;2023-05-08T13:10:02;102000;;;23.47542;68.6
70943;BME280;59154;51.970;5.650;2023-05-08T13:15:03;102000;;;23.47542;68.6
70943;BME280;59154;51.970;5.650;2023-05-08T13:20:04;102000;;;23.49068;68.6
70943;BME280;59154;51.970;5.650;2023-05-08T13:25:03;102000;;;23.5212;68.5
70943;BME280;59154;51.970;5.650;2023-05-08T13:30:03;102000;;;23.53646;68.5
70943;BME280;59154;51.970;5.650;2023-05-08T13:35:02;101900;;;23.54663;68.5
70943;BME280;59154;51.970;5.650;2023-05-08T13:40:04;102000;;;23.5568;68.5
70943;BME280;59154;51.970;5.650;2023-05-08T13:45:03;101900;;;23.56189;68.4
70943;BME280;59154;51.970;5.650;2023-05-08T13:50:03;101900;;;23.56698;68.4
70943;BME280;59154;51.970;5.650;2023-05-08T13:55:04;101900;;;23.57715;68.4
70943;BME280;59154;51.970;5.650;2023-05-08T14:00:05;101900;;;23.61784;68.3
70943;BME280;59154;51.970;5.650;2023-05-08T14:05:03;101900;;;23.62293;68.3
70943;BME280;59154;51.970;5.650;2023-05-08T14:10:03;101900;;;23.60767;68.3
70943;BME280;59154;51.970;5.650;2023-05-08T14:15:03;101900;;;23.63818;68.2
70943;BME280;59154;51.970;5.650;2023-05-08T14:20:03;101900;;;23.63818;68.2
70943;BME280;59154;51.970;5.650;2023-05-08T14:25:03;101900;;;23.62293;68.2
70943;BME280;59154;51.970;5.650;2023-05-08T14:30:03;101900;;;23.61275;68.2
70943;BME280;59154;51.970;5.650;2023-05-08T14:35:02;101900;;;23.62801;68.1
70943;BME280;59154;51.970;5.650;2023-05-08T14:40:04;101900;;;23.61784;67.9
70943;BME280;59154;51.970;5.650;2023-05-08T14:45:03;101900;;;23.62801;67.9
70943;BME280;59154;51.970;5.650;2023-05-08T14:50:03;101900;;;23.64327;67.9
70943;BME280;59154;51.970;5.650;2023-05-08T14:55:03;101900;;;23.63818;68.0
70943;BME280;59154;51.970;5.650;2023-05-08T15:00:03;101900;;;23.63818;68.1
70943;BME280;59154;51.970;5.650;2023-05-08T15:05:03;101900;;;23.60767;68.2
70943;BME280;59154;51.970;5.650;2023-05-08T15:10:03;101900;;;23.59241;68.2
70943;BME280;59154;51.970;5.650;2023-05-08T15:15:03;101900;;;23.58732;68.4
70943;BME280;59154;51.970;5.650;2023-05-08T15:20:04;101900;;;23.57715;68.5
70943;BME280;59154;51.970;5.650;2023-05-08T15:25:02;101900;;;23.57715;68.6
70943;BME280;59154;51.970;5.650;2023-05-08T15:30:03;101900;;;23.56698;68.7
70943;BME280;59154;51.970;5.650;2023-05-08T15:35:03;101900;;;23.56189;68.7
70943;BME280;59154;51.970;5.650;2023-05-08T15:40:04;101900;;;23.5568;68.6
70943;BME280;59154;51.970;5.650;2023-05-08T15:45:03;101900;;;23.57715;69.6
70943;BME280;59154;51.970;5.650;2023-05-08T15:50:03;101900;;;23.63818;69.9
70943;BME280;59154;51.970;5.650;2023-05-08T15:55:02;101900;;;23.72974;69.9
70943;BME280;59154;51.970;5.650;2023-05-08T16:00:04;101900;;;23.83147;69.5
70943;BME280;59154;51.970;5.650;2023-05-08T16:05:02;101900;;;24.16717;71.7
70943;BME280;59154;51.970;5.650;2023-05-08T16:10:03;101900;;;24.28924;70.3
70943;BME280;59154;51.970;5.650;2023-05-08T16:15:02;101900;;;24.37062;69.8
70943;BME280;59154;51.970;5.650;2023-05-08T16:20:04;101900;;;24.44183;69.7
70943;BME280;59154;51.970;5.650;2023-05-08T16:25:02;101900;;;24.42148;69.8
70943;BME280;59154;51.970;5.650;2023-05-08T16:30:03;101900;;;24.37062;69.8
70943;BME280;59154;51.970;5.650;2023-05-08T16:35:04;101900;;;24.31976;69.8
70943;BME280;59154;51.970;5.650;2023-05-08T16:40:05;101900;;;24.26889;69.9
70943;BME280;59154;51.970;5.650;2023-05-08T16:45:02;101900;;;24.18751;70.0
70943;BME280;59154;51.970;5.650;2023-05-08T16:50:03;101900;;;24.15191;70.8
70943;BME280;59154;51.970;5.650;2023-05-08T16:55:03;101900;;;24.13665;70.5
70943;BME280;59154;51.970;5.650;2023-05-08T17:00:04;101900;;;24.10613;70.7
70943;BME280;59154;51.970;5.650;2023-05-08T17:05:03;101900;;;24.03492;70.8
70943;BME280;59154;51.970;5.650;2023-05-08T17:10:03;101900;;;24.0044;70.8
70943;BME280;59154;51.970;5.650;2023-05-08T17:15:03;101900;;;23.97897;70.9
70943;BME280;59154;51.970;5.650;2023-05-08T17:20:05;101900;;;23.92811;71.0
70943;BME280;59154;51.970;5.650;2023-05-08T17:25:03;101900;;;23.91793;71.1
70943;BME280;59154;51.970;5.650;2023-05-08T17:30:03;101900;;;23.91285;71.8
70943;BME280;59154;51.970;5.650;2023-05-08T17:35:02;101900;;;23.92811;73.1
70943;BME280;59154;51.970;5.650;2023-05-08T17:40:04;101900;;;23.94845;73.7
70943;BME280;59154;51.970;5.650;2023-05-08T17:45:03;101900;;;23.95354;72.6
70943;BME280;59154;51.970;5.650;2023-05-08T17:50:02;101900;;;23.91285;72.7
70943;BME280;59154;51.970;5.650;2023-05-08T17:55:03;101900;;;23.92302;72.3
70943;BME280;59154;51.970;5.650;2023-05-08T18:00:04;101900;;;23.93319;71.8
70943;BME280;59154;51.970;5.650;2023-05-08T18:05:03;101900;;;23.86198;71.9
70943;BME280;59154;51.970;5.650;2023-05-08T18:10:03;101900;;;23.84164;71.8
70943;BME280;59154;51.970;5.650;2023-05-08T18:15:04;101900;;;23.81112;71.8
70943;BME280;59154;51.970;5.650;2023-05-08T18:20:03;101900;;;23.79586;71.9
70943;BME280;59154;51.970;5.650;2023-05-08T18:25:03;101900;;;23.75517;72.0
70943;BME280;59154;51.970;5.650;2023-05-08T18:30:03;101900;;;23.73991;71.8
70943;BME280;59154;51.970;5.650;2023-05-08T18:35:03;101900;;;23.72974;71.9
70943;BME280;59154;51.970;5.650;2023-05-08T18:40:04;101900;;;23.72465;71.8
70943;BME280;59154;51.970;5.650;2023-05-08T18:45:03;101900;;;23.68905;71.9
70943;BME280;59154;51.970;5.650;2023-05-08T18:50:03;101900;;;23.66362;71.9
70943;BME280;59154;51.970;5.650;2023-05-08T18:55:02;101900;;;23.63818;71.9
70943;BME280;59154;51.970;5.650;2023-05-08T19:00:04;101900;;;23.62293;71.8
70943;BME280;59154;51.970;5.650;2023-05-08T19:05:02;101900;;;23.59241;71.7
70943;BME280;59154;51.970;5.650;2023-05-08T19:10:02;101900;;;23.58223;71.7
70943;BME280;59154;51.970;5.650;2023-05-08T19:15:03;101900;;;23.5568;71.9
70943;BME280;59154;51.970;5.650;2023-05-08T19:20:04;101900;;;23.54154;71.6
70943;BME280;59154;51.970;5.650;2023-05-08T19:25:02;101900;;;23.41439;71.5
70943;BME280;59154;51.970;5.650;2023-05-08T19:30:04;101900;;;23.34826;70.7
70943;BME280;59154;51.970;5.650;2023-05-08T19:35:02;101900;;;23.22619;70.3
70943;BME280;59154;51.970;5.650;2023-05-08T19:40:04;101900;;;23.1499;70.0
70943;BME280;59154;51.970;5.650;2023-05-08T19:45:03;101900;;;23.2211;71.2
70943;BME280;59154;51.970;5.650;2023-05-08T19:50:04;101900;;;23.25162;71.7
70943;BME280;59154;51.970;5.650;2023-05-08T19:55:03;101900;;;23.30249;71.7
70943;BME280;59154;51.970;5.650;2023-05-08T20:00:04;101900;;;23.32792;71.7
70943;BME280;59154;51.970;5.650;2023-05-08T20:05:03;101900;;;23.35335;71.7
70943;BME280;59154;51.970;5.650;2023-05-08T20:10:03;101900;;;23.36352;71.6
70943;BME280;59154;51.970;5.650;2023-05-08T20:15:03;101900;;;23.37878;71.6
70943;BME280;59154;51.970;5.650;2023-05-08T20:20:03;101900;;;23.36861;71.6
70943;BME280;59154;51.970;5.650;2023-05-08T20:25:02;101900;;;23.36861;71.7
70943;BME280;59154;51.970;5.650;2023-05-08T20:30:04;101900;;;23.34826;71.9
70943;BME280;59154;51.970;5.650;2023-05-08T20:35:02;101900;;;23.333;71.9
70943;BME280;59154;51.970;5.650;2023-05-08T20:40:04;101900;;;23.31266;71.8
70943;BME280;59154;51.970;5.650;2023-05-08T20:45:02;101900;;;23.32283;71.6
70943;BME280;59154;51.970;5.650;2023-05-08T20:50:03;101900;;;23.31266;71.5
70943;BME280;59154;51.970;5.650;2023-05-08T20:55:03;101900;;;23.2974;71.7
70943;BME280;59154;51.970;5.650;2023-05-08T21:00:04;101900;;;23.24654;71.7
70943;BME280;59154;51.970;5.650;2023-05-08T21:05:03;101900;;;23.25162;71.5
70943;BME280;59154;51.970;5.650;2023-05-08T21:10:03;101900;;;23.23128;71.6
70943;BME280;59154;51.970;5.650;2023-05-08T21:15:03;101900;;;23.22619;71.5
70943;BME280;59154;51.970;5.650;2023-05-08T21:20:03;101900;;;23.21093;71.5
70943;BME280;59154;51.970;5.650;2023-05-08T21:25:03;101900;;;23.19059;71.4
70943;BME280;59154;51.970;5.650;2023-05-08T21:30:04;101900;;;23.17024;71.5
70943;BME280;59154;51.970;5.650;2023-05-08T21:35:03;101900;;;23.1499;71.5
70943;BME280;59154;51.970;5.650;2023-05-08T21:40:04;101900;;;23.13464;71.3
70943;BME280;59154;51.970;5.650;2023-05-08T21:45:03;101800;;;23.09903;70.7
70943;BME280;59154;51.970;5.650;2023-05-08T21:50:03;101900;;;23.06852;70.7
70943;BME280;59154;51.970;5.650;2023-05-08T21:55:02;101800;;;23.038;70.2
70943;BME280;59154;51.970;5.650;2023-05-08T22:00:05;101800;;;22.99222;70.1
70943;BME280;59154;51.970;5.650;2023-05-08T22:05:03;101800;;;22.94644;69.8
70943;BME280;59154;51.970;5.650;2023-05-08T22:10:03;101800;;;22.91593;69.8
70943;BME280;59154;51.970;5.650;2023-05-08T22:15:02;101800;;;22.89558;69.7
70943;BME280;59154;51.970;5.650;2023-05-08T22:20:05;101800;;;22.87015;69.5
70943;BME280;59154;51.970;5.650;2023-05-08T22:25:03;101800;;;22.83963;69.4
70943;BME280;59154;51.970;5.650;2023-05-08T22:30:04;101800;;;22.83455;69.2
70943;BME280;59154;51.970;5.650;2023-05-08T22:35:03;101800;;;22.8142;69.1
70943;BME280;59154;51.970;5.650;2023-05-08T22:40:04;101800;;;22.81929;69.0
70943;BME280;59154;51.970;5.650;2023-05-08T22:45:03;101800;;;22.78368;69.0
70943;BME280;59154;51.970;5.650;2023-05-08T22:50:03;101800;;;22.77351;69.0
70943;BME280;59154;51.970;5.650;2023-05-08T22:55:03;101800;;;22.74808;68.9
70943;BME280;59154;51.970;5.650;2023-05-08T23:00:04;101800;;;22.74299;68.9
70943;BME280;59154;51.970;5.650;2023-05-08T23:05:02;101800;;;22.7023;68.7
70943;BME280;59154;51.970;5.650;2023-05-08T23:10:03;101700;;;22.68704;68.9
70943;BME280;59154;51.970;5.650;2023-05-08T23:15:02;101700;;;22.67178;68.8
70943;BME280;59154;51.970;5.650;2023-05-08T23:20:03;101700;;;22.63618;68.8
70943;BME280;59154;51.970;5.650;2023-05-08T23:25:08;101700;;;22.62092;68.7
70943;BME280;59154;51.970;5.650;2023-05-08T23:30:04;101700;;;22.62092;68.7
70943;BME280;59154;51.970;5.650;2023-05-08T23:35:02;101700;;;22.60566;68.7
70943;BME280;59154;51.970;5.650;2023-05-08T23:40:04;101700;;;22.59549;68.6
70943;BME280;59154;51.970;5.650;2023-05-08T23:45:03;101700;;;22.57006;68.7
70943;BME280;59154;51.970;5.650;2023-05-08T23:50:04;101700;;;22.57006;68.6
70943;BME280;59154;51.970;5.650;2023-05-08T23:55:02;101700;;;22.5548;68.6
